Impacts TAF Board INFO
FOR SITUATIONAL AWARENESS. NOT TO BE USED FOR FLIGHT PLANNING PURPOSES.
IDs:

KIAD - Washington/Dulles In, VA, US

Issued at 2323 UTC 20 Feb 2017
Updated at 0508 UTC 21 Feb 2017
Potential Impact None Slight Moderate High
Time0452Z 21/06Z 21/07Z 21/08Z 21/09Z 21/10Z 21/11Z 21/12Z 21/13Z 21/14Z 21/15Z 21/16Z 21/17Z 21/18Z
Type OBS PRVL PRVL PRVL PRVL PRVL PRVL PRVL PRVL PRVL PRVL PRVL PRVL PRVL
VIS 10 >6 >6 >6 >6 >6 >6 >6 >6 >6 >6 >6 >6 >6
CIG 250 -- -- -- -- -- -- -- -- -- 200 200 200 200
Cover BKN SCT SCT SCT SCT SCT SCT SCT SCT SCT BKN BKN BKN BKN
FltCat VFR VFR VFR VFR VFR VFR VFR VFR VFR VFR VFR VFR VFR VFR
WX -- -- -- -- -- -- -- -- -- -- -- -- -- --
WDir VRB 40 40 40 40 40 40 40 40 40 160 160 160 160
WSpd 0 4 4 4 4 4 4 4 4 4 6 6 6 6
WGst -- -- -- -- -- -- -- -- -- -- -- -- -- --

Raw TAF
KIAD 202323Z 2100/2206 04004KT P6SM SCT250
  FM211500 16006KT P6SM SCT050 BKN200


Raw METAR
KIAD 210452Z 00000KT 10SM FEW180 BKN250 04/M02 A3030 RMK AO2 SLP261 T00441017 401830044
KIAD 210352Z 00000KT 10SM BKN250 08/M02 A3030 RMK AO2 SLP261 T00781022
KIAD 210252Z 08005KT 10SM SCT250 09/M01 A3028 RMK AO2 SLP255 T00891011 53017

METAR Board
Radar Display
Forecast Discussion

FOR SITUATIONAL AWARENESS. NOT TO BE USED FOR FLIGHT PLANNING PURPOSES.

Page loaded:  05:08 UTC  |   09:08 PM Pacific  |   10:08 PM Mountain  |   11:08 PM Central  |   12:08 AM Eastern

 

ADVISORIES

FORECASTS

FORECASTS

OBSERVATIONS

USER TOOLS

ABOUT US